PrentiSS Brown — WDE6848 — position and weather

sailwx.info

Track history (hours):
 
Tides and Currents Weather Stations Pressure Air Temp Water Temp Dewpoint Dewpoint Depression Visibility Wind Speed Wind Dir Waves Ship Positions

PrentiSS Brown

Owner: Port City Marine Services Inc, Muskegon, MI. More information available from US FCC via Universal Licensing System and Coast Guard Vessel Documentation Center.

Last reported at 2014-Oct-29 20:32 UTC. Time now 2014-Nov-01 13:21 UTC.
Position N 45°13' W 086°02'.

; draft 5.6 m.

Type: Other ship. MMSI: 366922280.

Date/timePositionNaut miles runAvg speedWind from/ knotsBaromVisibWave heightAir tempDewpointWater temp
2014-Oct-29 20:32N 45°13' W 086°02'8 8.4
2014-Oct-29 19:33N 45°13' W 085°50'9 8.7
2014-Oct-29 18:33N 45°15' W 085°38'8 8.3
2014-Oct-29 17:33N 45°17' W 085°27'7 7.1
2014-Oct-29 16:33N 45°19' W 085°17'1 0.6
2014-Oct-29 15:33N 45°19' W 085°18'0 0.0
2014-Oct-29 14:33N 45°19' W 085°18'0 0.0
2014-Oct-29 13:33N 45°19' W 085°18'0 0.0
2014-Oct-29 12:33N 45°19' W 085°18'0 0.0
2014-Oct-29 11:33N 45°19' W 085°18'0 0.0
2014-Oct-29 10:33N 45°19' W 085°18'0 0.0
2014-Oct-29 09:33N 45°19' W 085°18'0 0.0
2014-Oct-29 08:33N 45°19' W 085°18'0 0.0
2014-Oct-29 07:33N 45°19' W 085°18'0 0.0
2014-Oct-29 06:33N 45°19' W 085°18'0 0.0
2014-Oct-29 05:33N 45°19' W 085°18'0 0.0
2014-Oct-29 04:33N 45°19' W 085°18'0 0.0
2014-Oct-29 03:33N 45°19' W 085°18'0 0.0
2014-Oct-29 02:33N 45°19' W 085°18'0 0.0
2014-Oct-29 01:33N 45°19' W 085°18'0 0.0
2014-Oct-29 00:33N 45°19' W 085°18'0 0.0
2014-Oct-28 23:33N 45°19' W 085°18'0 0.0
2014-Oct-28 22:33N 45°19' W 085°18'0 0.0
2014-Oct-28 21:33N 45°19' W 085°18'0 0.0
2014-Oct-28 20:33N 45°19' W 085°18'0 0.0
2014-Oct-28 19:33N 45°19' W 085°18'0 0.0
2014-Oct-28 18:33N 45°19' W 085°18'0 0.0
2014-Oct-28 17:33N 45°19' W 085°18'0 0.0
2014-Oct-28 16:33N 45°19' W 085°18'0 0.0
2014-Oct-28 15:33N 45°19' W 085°18'0 0.0
2014-Oct-28 14:33N 45°19' W 085°18'0 0.0
2014-Oct-28 13:33N 45°19' W 085°18'0 0.0
2014-Oct-28 12:33N 45°19' W 085°18'0 0.0
2014-Oct-28 11:33N 45°19' W 085°18'0 0.0
2014-Oct-28 10:33N 45°19' W 085°18'0 0.0
2014-Oct-28 09:33N 45°19' W 085°18'0 0.0
2014-Oct-28 08:33N 45°19' W 085°18'0 0.0
2014-Oct-28 07:33N 45°19' W 085°18'0 0.0
2014-Oct-28 06:33N 45°19' W 085°18'0 0.0
2014-Oct-28 05:33N 45°19' W 085°18'0 0.0
2014-Oct-28 04:33N 45°19' W 085°18'0 0.0
2014-Oct-28 03:33N 45°19' W 085°18'0 0.0
2014-Oct-28 02:33N 45°19' W 085°18'0 0.0
2014-Oct-28 01:33N 45°19' W 085°18'0 0.0
2014-Oct-28 00:33N 45°19' W 085°18'0 0.0
2014-Oct-27 23:33N 45°19' W 085°18'0 0.0
2014-Oct-27 22:33N 45°19' W 085°18'0 0.0
2014-Oct-27 21:33N 45°19' W 085°18'0 0.0
2014-Oct-27 20:33N 45°19' W 085°18'0 0.0
2014-Oct-27 19:33N 45°19' W 085°18'0 0.0
2014-Oct-27 18:33N 45°19' W 085°18'0 0.0
2014-Oct-27 17:33N 45°19' W 085°18'0 0.0
2014-Oct-27 16:33N 45°19' W 085°18'0 0.0
2014-Oct-27 15:33N 45°19' W 085°18'0 0.0
2014-Oct-27 14:33N 45°19' W 085°18'0 0.1
2014-Oct-27 13:33N 45°19' W 085°18'7 6.5
2014-Oct-27 12:33N 45°18' W 085°27'9 9.4
2014-Oct-27 11:33N 45°13' W 085°38'10 9.6
2014-Oct-27 10:33N 45°07' W 085°48'10 9.5
2014-Oct-27 09:33N 45°00' W 085°58'  
2014-Oct-23 06:16N 44°59' W 086°01'10 9.1
2014-Oct-23 05:09N 45°05' W 085°50'5 9.2
2014-Oct-23 04:33N 45°09' W 085°45'9 8.9
2014-Oct-23 03:33N 45°14' W 085°35'9 9.4
2014-Oct-23 02:33N 45°19' W 085°23'4 3.5
2014-Oct-23 01:33N 45°19' W 085°18'0 0.0
2014-Oct-23 00:33N 45°19' W 085°18'0 0.0
2014-Oct-22 23:34N 45°19' W 085°18'0 0.0
2014-Oct-22 22:33N 45°19' W 085°18'0 0.0
2014-Oct-22 21:33N 45°19' W 085°18'0 0.0
2014-Oct-22 20:33N 45°19' W 085°18'0 0.0
2014-Oct-22 19:33N 45°19' W 085°18'0 0.0
2014-Oct-22 18:33N 45°19' W 085°18'0 0.0
2014-Oct-22 17:33N 45°19' W 085°18'0 0.0
2014-Oct-22 16:33N 45°19' W 085°18'0 0.0
2014-Oct-22 15:33N 45°19' W 085°18'0 0.0
2014-Oct-22 14:33N 45°19' W 085°18'0 0.0
2014-Oct-22 13:33N 45°19' W 085°18'0 0.0
2014-Oct-22 12:33N 45°19' W 085°18'1 0.8
2014-Oct-22 11:33N 45°20' W 085°17'9 8.9
2014-Oct-22 10:33N 45°17' W 085°29'9 9.2
2014-Oct-22 09:33N 45°12' W 085°41'9 9.4
2014-Oct-22 08:33N 45°05' W 085°50'7 0.2
2014-Oct-20 09:13N 45°00' W 085°58'14 8.6
2014-Oct-20 07:33N 45°10' W 085°43'8 8.3
2014-Oct-20 06:33N 45°15' W 085°33'9 8.9
2014-Oct-20 05:33N 45°19' W 085°22'3 3.2
2014-Oct-20 04:33N 45°19' W 085°18'0 0.0
2014-Oct-20 03:33N 45°19' W 085°18'0 0.0
2014-Oct-20 02:33N 45°19' W 085°18'0 0.0
2014-Oct-20 01:33N 45°19' W 085°18'0 0.0
2014-Oct-20 00:33N 45°19' W 085°18'0 0.0
2014-Oct-19 23:33N 45°19' W 085°18'0 0.0
2014-Oct-19 22:33N 45°19' W 085°18'1 0.9
2014-Oct-19 21:33N 45°20' W 085°18'9 9.3
2014-Oct-19 20:33N 45°16' W 085°30'  
Track history (hours):
 
Tides and Currents Weather Stations Pressure Air Temp Water Temp Dewpoint Dewpoint Depression Visibility Wind Speed Wind Dir Waves Ship Positions

PrentiSS Brown

Owner: Port City Marine Services Inc, Muskegon, MI. More information available from US FCC via Universal Licensing System and Coast Guard Vessel Documentation Center.

Last reported at 2014-Oct-29 20:32 UTC. Time now 2014-Nov-01 13:21 UTC.
Position N 45°13' W 086°02'.

; draft 5.6 m.

Type: Other ship. MMSI: 366922280.

Date/timePositionNaut miles runAvg speedWind from/ knotsBaromVisibWave heightAir tempDewpointWater temp
2014-Oct-29 20:32N 45°13' W 086°02'8 8.4
2014-Oct-29 19:33N 45°13' W 085°50'9 8.7
2014-Oct-29 18:33N 45°15' W 085°38'8 8.3
2014-Oct-29 17:33N 45°17' W 085°27'7 7.1
2014-Oct-29 16:33N 45°19' W 085°17'1 0.6
2014-Oct-29 15:33N 45°19' W 085°18'0 0.0
2014-Oct-29 14:33N 45°19' W 085°18'0 0.0
2014-Oct-29 13:33N 45°19' W 085°18'0 0.0
2014-Oct-29 12:33N 45°19' W 085°18'0 0.0
2014-Oct-29 11:33N 45°19' W 085°18'0 0.0
2014-Oct-29 10:33N 45°19' W 085°18'0 0.0
2014-Oct-29 09:33N 45°19' W 085°18'0 0.0
2014-Oct-29 08:33N 45°19' W 085°18'0 0.0
2014-Oct-29 07:33N 45°19' W 085°18'0 0.0
2014-Oct-29 06:33N 45°19' W 085°18'0 0.0
2014-Oct-29 05:33N 45°19' W 085°18'0 0.0
2014-Oct-29 04:33N 45°19' W 085°18'0 0.0
2014-Oct-29 03:33N 45°19' W 085°18'0 0.0
2014-Oct-29 02:33N 45°19' W 085°18'0 0.0
2014-Oct-29 01:33N 45°19' W 085°18'0 0.0
2014-Oct-29 00:33N 45°19' W 085°18'0 0.0
2014-Oct-28 23:33N 45°19' W 085°18'0 0.0
2014-Oct-28 22:33N 45°19' W 085°18'0 0.0
2014-Oct-28 21:33N 45°19' W 085°18'0 0.0
2014-Oct-28 20:33N 45°19' W 085°18'0 0.0
2014-Oct-28 19:33N 45°19' W 085°18'0 0.0
2014-Oct-28 18:33N 45°19' W 085°18'0 0.0
2014-Oct-28 17:33N 45°19' W 085°18'0 0.0
2014-Oct-28 16:33N 45°19' W 085°18'0 0.0
2014-Oct-28 15:33N 45°19' W 085°18'0 0.0
2014-Oct-28 14:33N 45°19' W 085°18'0 0.0
2014-Oct-28 13:33N 45°19' W 085°18'0 0.0
2014-Oct-28 12:33N 45°19' W 085°18'0 0.0
2014-Oct-28 11:33N 45°19' W 085°18'0 0.0
2014-Oct-28 10:33N 45°19' W 085°18'0 0.0
2014-Oct-28 09:33N 45°19' W 085°18'0 0.0
2014-Oct-28 08:33N 45°19' W 085°18'0 0.0
2014-Oct-28 07:33N 45°19' W 085°18'0 0.0
2014-Oct-28 06:33N 45°19' W 085°18'0 0.0
2014-Oct-28 05:33N 45°19' W 085°18'0 0.0
2014-Oct-28 04:33N 45°19' W 085°18'0 0.0
2014-Oct-28 03:33N 45°19' W 085°18'0 0.0
2014-Oct-28 02:33N 45°19' W 085°18'0 0.0
2014-Oct-28 01:33N 45°19' W 085°18'0 0.0
2014-Oct-28 00:33N 45°19' W 085°18'0 0.0
2014-Oct-27 23:33N 45°19' W 085°18'0 0.0
2014-Oct-27 22:33N 45°19' W 085°18'0 0.0
2014-Oct-27 21:33N 45°19' W 085°18'0 0.0
2014-Oct-27 20:33N 45°19' W 085°18'0 0.0
2014-Oct-27 19:33N 45°19' W 085°18'0 0.0
2014-Oct-27 18:33N 45°19' W 085°18'0 0.0
2014-Oct-27 17:33N 45°19' W 085°18'0 0.0
2014-Oct-27 16:33N 45°19' W 085°18'0 0.0
2014-Oct-27 15:33N 45°19' W 085°18'0 0.0
2014-Oct-27 14:33N 45°19' W 085°18'0 0.1
2014-Oct-27 13:33N 45°19' W 085°18'7 6.5
2014-Oct-27 12:33N 45°18' W 085°27'9 9.4
2014-Oct-27 11:33N 45°13' W 085°38'10 9.6
2014-Oct-27 10:33N 45°07' W 085°48'10 9.5
2014-Oct-27 09:33N 45°00' W 085°58'  
2014-Oct-23 06:16N 44°59' W 086°01'10 9.1
2014-Oct-23 05:09N 45°05' W 085°50'5 9.2
2014-Oct-23 04:33N 45°09' W 085°45'9 8.9
2014-Oct-23 03:33N 45°14' W 085°35'9 9.4
2014-Oct-23 02:33N 45°19' W 085°23'4 3.5
2014-Oct-23 01:33N 45°19' W 085°18'0 0.0
2014-Oct-23 00:33N 45°19' W 085°18'0 0.0
2014-Oct-22 23:34N 45°19' W 085°18'0 0.0
2014-Oct-22 22:33N 45°19' W 085°18'0 0.0
2014-Oct-22 21:33N 45°19' W 085°18'0 0.0
2014-Oct-22 20:33N 45°19' W 085°18'0 0.0
2014-Oct-22 19:33N 45°19' W 085°18'0 0.0
2014-Oct-22 18:33N 45°19' W 085°18'0 0.0
2014-Oct-22 17:33N 45°19' W 085°18'0 0.0
2014-Oct-22 16:33N 45°19' W 085°18'0 0.0
2014-Oct-22 15:33N 45°19' W 085°18'0 0.0
2014-Oct-22 14:33N 45°19' W 085°18'0 0.0
2014-Oct-22 13:33N 45°19' W 085°18'0 0.0
2014-Oct-22 12:33N 45°19' W 085°18'1 0.8
2014-Oct-22 11:33N 45°20' W 085°17'9 8.9
2014-Oct-22 10:33N 45°17' W 085°29'9 9.2
2014-Oct-22 09:33N 45°12' W 085°41'9 9.4
2014-Oct-22 08:33N 45°05' W 085°50'7 0.2
2014-Oct-20 09:13N 45°00' W 085°58'14 8.6
2014-Oct-20 07:33N 45°10' W 085°43'8 8.3
2014-Oct-20 06:33N 45°15' W 085°33'9 8.9
2014-Oct-20 05:33N 45°19' W 085°22'3 3.2
2014-Oct-20 04:33N 45°19' W 085°18'0 0.0
2014-Oct-20 03:33N 45°19' W 085°18'0 0.0
2014-Oct-20 02:33N 45°19' W 085°18'0 0.0
2014-Oct-20 01:33N 45°19' W 085°18'0 0.0
2014-Oct-20 00:33N 45°19' W 085°18'0 0.0
2014-Oct-19 23:33N 45°19' W 085°18'0 0.0
2014-Oct-19 22:33N 45°19' W 085°18'1 0.9
2014-Oct-19 21:33N 45°20' W 085°18'9 9.3
2014-Oct-19 20:33N 45°16' W 085°30'  

Dump ship's entire track history